Aviation Digital Data Service (ADDS)

Output produced by METARs form (1536 UTC 16 February 2019)
found at http://aviationweather.gov/metar/data/
 
METAR text: KDRO 161519Z AUTO 27019G28KT 4SM -SN SCT028 BKN036 BKN075 M02/M05 A2967 RMK AO2 PK WND 27035/1507 UPB09E11SNB11 P0000 T10171050
Conditions at: KDRO (DURANGO , CO, US) observed 1519 UTC 16 February 2019
Temperature: -1.7°C (29°F)
Dewpoint: -5.0°C (23°F) [RH = 78%]
Pressure (altimeter): 29.67 inches Hg (1004.8 mb)
Winds: from the W (270 degrees) at 22 MPH (19 knots; 9.8 m/s)
gusting to 32 MPH (28 knots; 14.4 m/s)
Visibility: 4 miles ( 6 km)
Ceiling: 3600 feet AGL
Clouds: scattered clouds at 2800 feet AGL
broken clouds at 3600 feet AGL
broken clouds at 7500 feet AGL
Weather: -SN  (light snow)

METAR text: KDRO 161516Z AUTO 27016G35KT 2SM -SN SCT025 BKN032 M02/M04 A2967 RMK AO2 PK WND 27035/1507 UPB09E11SNB11 P0000 T10171044
Conditions at: KDRO (DURANGO , CO, US) observed 1516 UTC 16 February 2019
Temperature: -1.7°C (29°F)
Dewpoint: -4.4°C (24°F) [RH = 82%]
Pressure (altimeter): 29.67 inches Hg (1004.8 mb)
Winds: from the W (270 degrees) at 18 MPH (16 knots; 8.2 m/s)
gusting to 40 MPH (35 knots; 18.0 m/s)
Visibility: 2.00 miles (3.22 km)
Ceiling: 3200 feet AGL
Clouds: scattered clouds at 2500 feet AGL
broken clouds at 3200 feet AGL
Weather: -SN  (light snow)

METAR text: KDRO 161453Z AUTO 26013KT 10SM FEW009 BKN024 OVC036 M01/M03 A2966 RMK AO2 SNB09E47 SLP060 P0000 60000 T10111028 56014
Conditions at: KDRO (DURANGO , CO, US) observed 1453 UTC 16 February 2019
Temperature: -1.1°C (30°F)
Dewpoint: -2.8°C (27°F) [RH = 88%]
Pressure (altimeter): 29.66 inches Hg (1004.5 mb)
[Sea-level pressure: 1006.0 mb]
Winds: from the W (260 degrees) at 15 MPH (13 knots; 6.7 m/s)
Visibility: 10 or more miles (16+ km)
Ceiling: 2400 feet AGL
Clouds: few clouds at 900 feet AGL
broken clouds at 2400 feet AGL
overcast cloud deck at 3600 feet AGL
Weather: automated observation with no human augmentation;
there may or may not be significant weather present at this time

METAR text: KDRO 161444Z AUTO 25012G22KT 4SM -SN BR FEW009 SCT018 OVC028 M02/M02 A2967 RMK AO2 SNB09 P0000 T10221022
Conditions at: KDRO (DURANGO , CO, US) observed 1444 UTC 16 February 2019
Temperature: -2.2°C (28°F)
Dewpoint: -2.2°C (28°F) [RH = 100%]
Pressure (altimeter): 29.67 inches Hg (1004.8 mb)
Winds: from the WSW (250 degrees) at 14 MPH (12 knots; 6.2 m/s)
gusting to 25 MPH (22 knots; 11.3 m/s)
Visibility: 4 miles ( 6 km)
Ceiling: 2800 feet AGL
Clouds: few clouds at 900 feet AGL
scattered clouds at 1800 feet AGL
overcast cloud deck at 2800 feet AGL
Weather: -SN BR  (light snow, mist)

METAR text: KDRO 161442Z AUTO 25012G23KT 1 1/2SM -SN BR FEW009 SCT021 OVC028 M02/M02 A2967 RMK AO2 SNB09 P0000 T10221022
Conditions at: KDRO (DURANGO , CO, US) observed 1442 UTC 16 February 2019
Temperature: -2.2°C (28°F)
Dewpoint: -2.2°C (28°F) [RH = 100%]
Pressure (altimeter): 29.67 inches Hg (1004.8 mb)
Winds: from the WSW (250 degrees) at 14 MPH (12 knots; 6.2 m/s)
gusting to 26 MPH (23 knots; 11.8 m/s)
Visibility: 1.50 miles (2.41 km)
Ceiling: 2800 feet AGL
Clouds: few clouds at 900 feet AGL
scattered clouds at 2100 feet AGL
overcast cloud deck at 2800 feet AGL
Weather: -SN BR  (light snow, mist)

METAR text: KDRO 161438Z AUTO 24013G25KT 3/4SM -SN BR FEW007 BKN022 OVC029 M02/M02 A2967 RMK AO2 SNB09 P0000 T10221022
Conditions at: KDRO (DURANGO , CO, US) observed 1438 UTC 16 February 2019
Temperature: -2.2°C (28°F)
Dewpoint: -2.2°C (28°F) [RH = 100%]
Pressure (altimeter): 29.67 inches Hg (1004.8 mb)
Winds: from the WSW (240 degrees) at 15 MPH (13 knots; 6.7 m/s)
gusting to 29 MPH (25 knots; 12.9 m/s)
Visibility: 0.75 miles (1.21 km)
Ceiling: 2200 feet AGL
Clouds: few clouds at 700 feet AGL
broken clouds at 2200 feet AGL
overcast cloud deck at 2900 feet AGL
Weather: -SN BR  (light snow, mist)

Forecast for: KDRO (DURANGO , CO, US)
Text: KDRO 161137Z 1612/1712 VRB05KT P6SM VCSH FEW014 BKN035
Forecast period: 1200 to 1600 UTC 16 February 2019
Forecast type: FROM: standard forecast or significant change
Winds: variable direction winds at 6 MPH (5 knots; 2.6 m/s)
Visibility: 6 or more miles 10+ km)
Ceiling: 3500 feet AGL
Clouds: few clouds at 1400 feet AGL
broken clouds at 3500 feet AGL
Weather: VCSH  (showers in vicinity)
Text: TEMPO 1612/1616 24014G22KT 2SM -SN BR SCT015 OVC025
Forecast period: 1200 to 1600 UTC 16 February 2019
Forecast type: TEMPORARY: The following changes expected for less than half the time period
Winds: from the WSW (240 degrees) at 16 MPH (14 knots; 7.2 m/s)
gusting to 25 MPH (22 knots; 11.3 m/s)
Visibility: 2.00 miles (3.22 km)
Ceiling: 2500 feet AGL
Clouds: scattered clouds at 1500 feet AGL
overcast cloud deck at 2500 feet AGL
Weather: -SN BR  (light snow, mist)
Text: FM161600 25012KT 6SM -RA BKN015 OVC035
Forecast period: 1600 to 1800 UTC 16 February 2019
Forecast type: FROM: standard forecast or significant change
Winds: from the WSW (250 degrees) at 14 MPH (12 knots; 6.2 m/s)
Visibility: 6 miles (10 km)
Ceiling: 1500 feet AGL
Clouds: broken clouds at 1500 feet AGL
overcast cloud deck at 3500 feet AGL
Weather: -RA  (light rain)
Text: FM161800 27016G26KT 6SM -RA BKN020
Forecast period: 1800 to 2200 UTC 16 February 2019
Forecast type: FROM: standard forecast or significant change
Winds: from the W (270 degrees) at 18 MPH (16 knots; 8.2 m/s)
gusting to 30 MPH (26 knots; 13.4 m/s)
Visibility: 6 miles (10 km)
Ceiling: 2000 feet AGL
Clouds: broken clouds at 2000 feet AGL
Weather: -RA  (light rain)
Text: FM162200 28018G28KT P6SM VCSH SCT035 SCT090
Forecast period: 2200 UTC 16 February 2019 to 0300 UTC 17 February 2019
Forecast type: FROM: standard forecast or significant change
Winds: from the W (280 degrees) at 21 MPH (18 knots; 9.3 m/s)
gusting to 32 MPH (28 knots; 14.4 m/s)
Visibility: 6 or more miles 10+ km)
Ceiling: at least 12,000 feet AGL
Clouds: scattered clouds at 3500 feet AGL
scattered clouds at 9000 feet AGL
Weather: VCSH  (showers in vicinity)
Text: FM170300 31007KT P6SM FEW045 SCT200
Forecast period: 0300 to 1200 UTC 17 February 2019
Forecast type: FROM: standard forecast or significant change
Winds: from the NW (310 degrees) at 8 MPH (7 knots; 3.6 m/s)
Visibility: 6 or more miles 10+ km)
Ceiling: at least 12,000 feet AGL
Clouds: few clouds at 4500 feet AGL
scattered clouds at 20000 feet AGL
Weather: no significant weather forecast for this period